createdAt,value
2023-01-30T00:01:01.592Z,29.35
2023-01-30T00:03:29.421Z,30.55
2023-01-30T00:05:55.903Z,30.88
2023-01-30T00:08:22.592Z,33.47
2023-01-30T00:10:49.099Z,25.90
2023-01-30T00:13:16.066Z,25.88
2023-01-30T00:15:42.863Z,26.88
2023-01-30T00:18:09.416Z,33.30
2023-01-30T00:20:37.441Z,32.30
2023-01-30T00:23:04.251Z,26.48
2023-01-30T00:25:31.551Z,28.95
2023-01-30T00:27:59.022Z,31.50
2023-01-30T00:30:25.491Z,28.38
2023-01-30T00:32:53.760Z,25.85
2023-01-30T00:35:20.294Z,28.65
2023-01-30T00:37:48.070Z,24.25
2023-01-30T00:40:14.686Z,24.83
2023-01-30T00:42:59.906Z,30.85
2023-01-30T00:45:44.771Z,24.33
2023-01-30T00:48:11.292Z,21.88
2023-01-30T00:50:43.677Z,43.00
2023-01-30T00:53:12.051Z,53.70
2023-01-30T00:55:38.782Z,27.98
2023-01-30T00:58:05.380Z,17.13
2023-01-30T01:00:31.940Z,24.98
2023-01-30T01:02:58.489Z,25.52
2023-01-30T01:05:24.996Z,23.67
2023-01-30T01:07:51.408Z,21.92
2023-01-30T01:10:19.475Z,23.17
2023-01-30T01:12:45.982Z,24.15
2023-01-30T01:15:13.071Z,24.25
2023-01-30T01:17:45.846Z,23.08
2023-01-30T01:20:13.118Z,20.50
2023-01-30T01:22:46.715Z,25.50
2023-01-30T01:25:13.215Z,22.10
2023-01-30T01:27:41.006Z,24.40
2023-01-30T01:30:08.148Z,21.85
2023-01-30T01:32:35.291Z,21.77
2023-01-30T01:35:01.834Z,19.00
2023-01-30T01:37:28.319Z,22.10
2023-01-30T01:40:26.968Z,15.55
2023-01-30T01:42:54.780Z,21.45
2023-01-30T01:45:22.494Z,22.27
2023-01-30T01:47:56.998Z,20.27
2023-01-30T01:50:25.186Z,21.88
2023-01-30T01:52:53.055Z,19.92
2023-01-30T01:55:21.404Z,15.63
2023-01-30T01:57:51.320Z,21.02
2023-01-30T02:00:19.823Z,19.35
2023-01-30T02:02:47.845Z,17.48
2023-01-30T02:05:16.385Z,18.27
2023-01-30T02:07:45.960Z,19.88
2023-01-30T02:10:15.503Z,18.60
2023-01-30T02:12:42.314Z,21.85
2023-01-30T02:15:09.204Z,19.55
2023-01-30T02:17:37.061Z,20.13
2023-01-30T02:20:05.535Z,20.40
2023-01-30T02:22:36.787Z,18.70
2023-01-30T02:25:18.450Z,20.27
2023-01-30T02:27:54.966Z,17.52
2023-01-30T02:30:38.645Z,19.23
2023-01-30T02:33:10.242Z,20.05
2023-01-30T02:35:44.806Z,20.13
2023-01-30T02:38:17.357Z,17.60
2023-01-30T02:40:49.150Z,18.45
2023-01-30T02:43:19.813Z,17.48
2023-01-30T02:45:50.375Z,17.33
2023-01-30T02:48:18.730Z,17.10
2023-01-30T02:50:47.902Z,19.83
2023-01-30T02:53:14.368Z,17.90
2023-01-30T02:55:41.506Z,18.17
2023-01-30T02:58:08.495Z,19.65
2023-01-30T03:00:44.568Z,17.13
2023-01-30T03:03:24.760Z,17.48
2023-01-30T03:06:00.637Z,17.98
2023-01-30T03:08:30.653Z,18.23
2023-01-30T03:11:02.350Z,18.25
2023-01-30T03:13:34.588Z,17.55
2023-01-30T03:16:03.613Z,18.55
2023-01-30T03:18:31.350Z,17.60
2023-01-30T03:21:03.405Z,19.15
2023-01-30T03:23:29.814Z,18.20
2023-01-30T03:25:56.463Z,19.60
2023-01-30T03:28:23.195Z,16.73
2023-01-30T03:30:49.775Z,18.10
2023-01-30T03:33:16.298Z,19.75
2023-01-30T03:35:44.624Z,22.30
2023-01-30T03:38:11.118Z,18.88
2023-01-30T03:40:37.642Z,16.67
2023-01-30T03:43:04.442Z,17.60
2023-01-30T03:45:30.939Z,18.70
2023-01-30T03:47:57.358Z,18.17
2023-01-30T03:50:23.790Z,21.02
2023-01-30T03:52:51.531Z,19.83
2023-01-30T03:55:18.296Z,15.38
2023-01-30T03:57:45.006Z,17.58
2023-01-30T04:00:11.841Z,18.30
2023-01-30T04:02:38.780Z,21.20
2023-01-30T04:05:05.671Z,18.35
2023-01-30T04:07:32.143Z,17.63
2023-01-30T04:09:59.931Z,16.92
2023-01-30T04:12:26.346Z,18.38
2023-01-30T04:14:52.748Z,15.60
2023-01-30T04:17:19.178Z,17.25
2023-01-30T04:19:45.660Z,17.33
2023-01-30T04:22:12.117Z,16.33
2023-01-30T04:24:38.609Z,16.63
2023-01-30T04:27:06.485Z,15.70
2023-01-30T04:29:33.230Z,17.17
2023-01-30T04:31:59.658Z,13.23
2023-01-30T04:34:26.110Z,17.65
2023-01-30T04:36:52.494Z,16.33
2023-01-30T04:39:20.540Z,17.52
2023-01-30T04:41:47.778Z,16.75
2023-01-30T04:44:15.509Z,18.90
2023-01-30T04:46:41.935Z,18.50
2023-01-30T04:49:09.368Z,17.85
2023-01-30T04:51:35.855Z,18.38
2023-01-30T04:54:02.338Z,19.52
2023-01-30T04:56:28.891Z,19.27
2023-01-30T04:58:55.349Z,18.08
2023-01-30T05:01:26.821Z,19.75
2023-01-30T05:03:53.503Z,15.02
2023-01-30T05:06:20.413Z,18.00
2023-01-30T05:08:48.131Z,21.00
2023-01-30T05:11:14.607Z,18.42
2023-01-30T05:13:41.111Z,18.08
2023-01-30T05:16:07.516Z,20.55
2023-01-30T05:18:35.310Z,21.35
2023-01-30T05:21:05.544Z,20.75
2023-01-30T05:23:32.573Z,18.80
2023-01-30T05:25:59.739Z,18.98
2023-01-30T05:28:30.504Z,21.05
2023-01-30T05:31:00.563Z,18.60
2023-01-30T05:33:27.081Z,20.33
2023-01-30T05:35:54.882Z,18.90
2023-01-30T05:38:22.085Z,19.75
2023-01-30T05:40:48.540Z,17.10
2023-01-30T05:43:14.993Z,19.40
2023-01-30T05:45:41.468Z,16.35
2023-01-30T05:48:07.890Z,18.52
2023-01-30T05:50:34.316Z,18.27
2023-01-30T05:53:02.100Z,15.93
2023-01-30T05:55:28.561Z,19.98
2023-01-30T05:57:54.986Z,16.00
2023-01-30T06:00:21.890Z,17.52
2023-01-30T06:02:48.410Z,18.10
2023-01-30T06:05:14.982Z,16.48
2023-01-30T06:07:41.504Z,20.17
2023-01-30T06:10:10.038Z,17.85
2023-01-30T06:12:36.477Z,18.65
2023-01-30T06:15:03.090Z,19.63
2023-01-30T06:17:30.055Z,16.75
2023-01-30T06:19:56.592Z,18.58
2023-01-30T06:22:22.973Z,17.90
2023-01-30T06:24:49.453Z,19.10
2023-01-30T06:27:17.250Z,19.85
2023-01-30T06:29:43.723Z,14.77
2023-01-30T06:32:10.577Z,17.20
2023-01-30T06:34:36.980Z,12.50
2023-01-30T06:37:03.540Z,15.55
2023-01-30T06:39:29.985Z,15.88
2023-01-30T06:41:56.461Z,17.27
2023-01-30T06:44:24.306Z,14.52
2023-01-30T06:46:50.731Z,15.95
2023-01-30T06:49:17.164Z,14.50
2023-01-30T06:51:43.592Z,16.25
2023-01-30T06:54:10.001Z,13.30
2023-01-30T06:56:36.436Z,14.07
2023-01-30T06:59:03.023Z,11.68
2023-01-30T07:01:30.896Z,11.80
2023-01-30T07:03:57.419Z,13.20
2023-01-30T07:06:23.843Z,10.95
2023-01-30T07:08:50.406Z,12.98
2023-01-30T07:11:16.887Z,14.55
2023-01-30T07:13:43.385Z,13.35
2023-01-30T07:16:09.932Z,13.63
2023-01-30T07:18:37.747Z,12.15
2023-01-30T07:21:04.259Z,11.65
2023-01-30T07:23:30.714Z,14.57
2023-01-30T07:25:57.183Z,13.23
2023-01-30T07:28:23.657Z,12.02
2023-01-30T07:30:52.900Z,14.00
2023-01-30T07:33:20.671Z,13.20
2023-01-30T07:35:48.553Z,12.63
2023-01-30T07:38:15.103Z,11.57
2023-01-30T07:40:41.668Z,11.95
2023-01-30T07:43:08.700Z,12.25
2023-01-30T07:45:36.525Z,14.60
2023-01-30T07:48:03.053Z,12.30
2023-01-30T07:50:29.513Z,13.65
2023-01-30T07:52:57.387Z,11.68
2023-01-30T07:55:23.978Z,8.23
2023-01-30T07:57:50.386Z,10.40
2023-01-30T08:00:17.637Z,11.38
2023-01-30T08:02:44.371Z,13.13
2023-01-30T08:05:10.993Z,10.70
2023-01-30T08:07:37.535Z,8.15
2023-01-30T08:10:06.084Z,11.50
2023-01-30T08:12:32.583Z,11.02
2023-01-30T08:14:59.105Z,9.00
2023-01-30T08:17:25.564Z,8.85
2023-01-30T08:19:52.180Z,9.60
2023-01-30T08:22:18.657Z,9.77
2023-01-30T08:24:45.149Z,9.00
2023-01-30T08:27:13.040Z,8.85
2023-01-30T08:29:39.506Z,7.65
2023-01-30T08:32:06.067Z,12.27
2023-01-30T08:34:32.732Z,8.80
2023-01-30T08:36:59.190Z,8.60
2023-01-30T08:39:25.825Z,6.68
2023-01-30T08:41:52.370Z,8.85
2023-01-30T08:44:20.194Z,6.70
2023-01-30T08:46:46.749Z,6.47
2023-01-30T08:49:13.359Z,7.85
2023-01-30T08:51:42.809Z,6.82
2023-01-30T08:54:09.515Z,5.10
2023-01-30T08:56:36.227Z,4.47
2023-01-30T08:59:02.780Z,5.30
2023-01-30T09:01:30.679Z,5.47
2023-01-30T09:03:57.397Z,4.65
2023-01-30T09:06:26.145Z,4.95
2023-01-30T09:08:52.863Z,4.90
2023-01-30T09:11:19.514Z,4.07
2023-01-30T09:13:48.054Z,2.80
2023-01-30T09:16:15.399Z,3.85
2023-01-30T09:18:43.982Z,5.32
2023-01-30T09:21:11.539Z,4.10
2023-01-30T09:23:38.344Z,3.70
2023-01-30T09:26:05.196Z,8.32
2023-01-30T09:28:31.953Z,3.85
2023-01-30T09:30:58.657Z,3.35
2023-01-30T09:33:25.733Z,5.00
2023-01-30T09:35:54.635Z,4.35
2023-01-30T09:38:22.027Z,3.03
2023-01-30T09:40:54.137Z,2.40
2023-01-30T09:43:29.418Z,3.13
2023-01-30T09:46:11.600Z,2.97
2023-01-30T09:48:42.585Z,3.90
2023-01-30T09:51:26.051Z,2.53
2023-01-30T09:54:03.226Z,6.87
2023-01-30T09:56:30.005Z,3.40
2023-01-30T09:58:57.796Z,2.90
2023-01-30T10:01:28.021Z,2.88
2023-01-30T10:03:58.641Z,4.47
2023-01-30T10:06:27.499Z,3.05
2023-01-30T10:08:58.172Z,3.22
2023-01-30T10:11:34.088Z,3.60
2023-01-30T10:14:08.542Z,4.82
2023-01-30T10:16:36.761Z,3.03
2023-01-30T10:19:33.561Z,4.13
2023-01-30T10:22:08.849Z,3.08
2023-01-30T10:24:42.449Z,5.30
2023-01-30T10:27:10.911Z,2.78
2023-01-30T10:29:38.537Z,3.15
2023-01-30T10:32:09.860Z,3.10
2023-01-30T10:34:37.680Z,2.75
2023-01-30T10:37:08.705Z,5.43
2023-01-30T10:39:40.864Z,2.97
2023-01-30T10:42:13.688Z,2.60
2023-01-30T10:44:41.142Z,8.43
2023-01-30T10:47:26.448Z,3.35
2023-01-30T10:49:56.033Z,1.80
2023-01-30T10:52:28.688Z,4.15
2023-01-30T10:55:00.318Z,3.60
2023-01-30T10:57:30.288Z,3.88
2023-01-30T10:59:59.673Z,3.50
2023-01-30T11:02:29.960Z,3.80
2023-01-30T11:04:58.975Z,3.60
2023-01-30T11:07:29.093Z,5.63
2023-01-30T11:09:57.295Z,4.07
2023-01-30T11:12:23.721Z,16.30
2023-01-30T11:14:52.079Z,5.32
2023-01-30T11:17:19.250Z,5.07
2023-01-30T11:19:45.768Z,3.50
2023-01-30T11:22:14.538Z,3.50
2023-01-30T11:24:43.176Z,4.78
2023-01-30T11:27:10.922Z,4.20
2023-01-30T11:29:38.735Z,3.97
2023-01-30T11:32:06.547Z,4.78
2023-01-30T11:34:33.116Z,9.00
2023-01-30T11:37:12.841Z,3.38
2023-01-30T11:39:47.354Z,5.00
2023-01-30T11:42:19.426Z,4.45
2023-01-30T11:44:46.097Z,5.13
2023-01-30T11:47:17.358Z,6.22
2023-01-30T11:50:02.488Z,3.60
2023-01-30T11:52:36.683Z,5.35
2023-01-30T11:55:06.987Z,4.82
2023-01-30T11:57:40.435Z,3.85
2023-01-30T12:00:14.034Z,6.30
2023-01-30T12:02:40.449Z,5.30
2023-01-30T12:05:08.409Z,4.40
2023-01-30T12:07:36.225Z,3.63
2023-01-30T12:10:17.424Z,5.15
2023-01-30T12:12:47.036Z,6.20
2023-01-30T12:15:17.323Z,6.05
2023-01-30T12:17:46.423Z,3.88
2023-01-30T12:20:16.946Z,4.65
2023-01-30T12:22:46.198Z,6.75
2023-01-30T12:25:16.233Z,4.70
2023-01-30T12:27:47.308Z,5.85
2023-01-30T12:30:21.310Z,23.73
2023-01-30T12:32:48.098Z,9.35
2023-01-30T12:35:16.459Z,6.38
2023-01-30T12:37:52.735Z,6.97
2023-01-30T12:40:25.240Z,5.43
2023-01-30T12:43:14.697Z,3.67
2023-01-30T12:45:44.210Z,5.07
2023-01-30T12:48:34.180Z,4.47
2023-01-30T12:51:10.559Z,7.32
2023-01-30T12:53:40.391Z,7.22
2023-01-30T12:56:19.624Z,11.15
2023-01-30T12:58:50.203Z,5.97
2023-01-30T13:01:25.266Z,6.40
2023-01-30T13:03:53.549Z,5.60
2023-01-30T13:06:29.229Z,6.43
2023-01-30T13:09:01.521Z,8.68
2023-01-30T13:11:37.200Z,5.22
2023-01-30T13:14:10.519Z,9.10
2023-01-30T13:16:42.477Z,7.47
2023-01-30T13:19:14.127Z,4.20
2023-01-30T13:21:43.414Z,8.25
2023-01-30T13:24:14.821Z,6.03
2023-01-30T13:26:42.802Z,10.32
2023-01-30T13:29:13.087Z,8.52
2023-01-30T13:31:43.573Z,11.48
2023-01-30T13:34:11.460Z,11.60
2023-01-30T13:36:42.758Z,8.60
2023-01-30T13:39:11.755Z,12.10
2023-01-30T13:41:40.738Z,8.15
2023-01-30T13:44:15.798Z,9.65
2023-01-30T13:46:44.449Z,12.68
2023-01-30T13:49:17.828Z,6.63
2023-01-30T13:51:48.644Z,14.77
2023-01-30T13:54:35.359Z,10.80
2023-01-30T13:57:05.789Z,15.70
2023-01-30T13:59:44.932Z,10.05
2023-01-30T14:02:18.467Z,13.73
2023-01-30T14:04:46.242Z,7.55
2023-01-30T14:07:16.029Z,10.60
2023-01-30T14:09:44.169Z,11.82
2023-01-30T14:12:17.387Z,9.00
2023-01-30T14:14:56.226Z,9.50
2023-01-30T14:17:24.231Z,12.32
2023-01-30T14:20:05.306Z,16.10
2023-01-30T14:22:36.956Z,11.00
2023-01-30T14:25:22.035Z,13.27
2023-01-30T14:27:50.198Z,11.57
2023-01-30T14:30:36.088Z,11.15
2023-01-30T14:33:04.213Z,13.85
2023-01-30T14:35:31.127Z,8.70
2023-01-30T14:38:12.777Z,14.73
2023-01-30T14:40:40.350Z,10.40
2023-01-30T14:43:40.210Z,12.70
2023-01-30T14:46:08.914Z,13.85
2023-01-30T14:48:39.043Z,14.88
2023-01-30T14:51:22.713Z,12.40
2023-01-30T14:53:54.115Z,12.57
2023-01-30T14:56:38.438Z,10.70
2023-01-30T14:59:07.328Z,12.77
2023-01-30T15:01:48.640Z,8.98
2023-01-30T15:04:16.893Z,10.05
2023-01-30T15:06:43.673Z,11.27
2023-01-30T15:09:12.048Z,11.50
2023-01-30T15:11:39.372Z,13.75
2023-01-30T15:14:08.607Z,13.43
2023-01-30T15:16:48.567Z,11.77
2023-01-30T15:19:25.616Z,10.50
2023-01-30T15:21:57.701Z,13.00
2023-01-30T15:24:42.204Z,13.75
2023-01-30T15:27:13.914Z,9.73
2023-01-30T15:29:57.403Z,52.30
2023-01-30T15:32:25.059Z,13.95
2023-01-30T15:34:53.915Z,13.77
2023-01-30T15:37:30.407Z,12.27
2023-01-30T15:40:10.240Z,13.40
2023-01-30T15:42:37.313Z,12.65
2023-01-30T15:45:05.722Z,16.13
2023-01-30T15:47:41.012Z,11.50
2023-01-30T15:50:09.533Z,13.07
2023-01-30T15:52:39.941Z,18.08
2023-01-30T15:55:08.229Z,11.93
2023-01-30T15:57:36.752Z,19.05
2023-01-30T16:00:04.366Z,13.90
2023-01-30T16:02:32.065Z,11.15
2023-01-30T16:05:06.763Z,10.25
2023-01-30T16:07:35.281Z,9.05
2023-01-30T16:10:09.038Z,11.77
2023-01-30T16:12:40.630Z,12.95
2023-01-30T16:15:19.634Z,21.02
2023-01-30T16:17:49.911Z,11.20
2023-01-30T16:20:17.032Z,11.45
2023-01-30T16:22:47.440Z,11.65
2023-01-30T16:25:20.559Z,14.23
2023-01-30T16:27:48.947Z,11.45
2023-01-30T16:30:20.209Z,19.15
2023-01-30T16:32:46.903Z,13.25
2023-01-30T16:35:27.791Z,12.05
2023-01-30T16:37:57.663Z,13.65
2023-01-30T16:40:24.876Z,12.57
2023-01-30T16:42:58.840Z,13.50
2023-01-30T16:47:51.966Z,16.58
2023-01-30T16:50:20.210Z,12.55
2023-01-30T16:52:50.319Z,12.57
2023-01-30T16:55:20.613Z,20.42
2023-01-30T16:57:51.670Z,18.55
2023-01-30T17:00:21.270Z,18.10
2023-01-30T17:02:50.375Z,10.50
2023-01-30T17:05:19.036Z,15.93
2023-01-30T17:07:46.205Z,11.10
2023-01-30T17:10:36.622Z,14.88
2023-01-30T17:13:04.709Z,18.48
2023-01-30T17:15:35.652Z,16.15
2023-01-30T17:18:02.338Z,16.80
2023-01-30T17:20:40.865Z,9.35
2023-01-30T17:23:08.725Z,12.07
2023-01-30T17:25:38.155Z,21.90
2023-01-30T17:28:06.874Z,15.18
2023-01-30T17:30:33.588Z,12.57
2023-01-30T17:33:00.031Z,17.45
2023-01-30T17:35:26.600Z,13.93
2023-01-30T17:38:03.508Z,16.92
2023-01-30T17:40:33.146Z,14.88
2023-01-30T17:42:59.691Z,15.27
2023-01-30T17:45:27.744Z,16.92
2023-01-30T17:47:54.341Z,13.57
2023-01-30T17:50:21.226Z,19.08
2023-01-30T17:52:47.935Z,13.00
2023-01-30T17:55:14.848Z,19.90
2023-01-30T17:57:44.952Z,17.10
2023-01-30T18:00:15.355Z,15.32
2023-01-30T18:02:43.517Z,12.80
2023-01-30T18:05:10.556Z,14.73
2023-01-30T18:07:37.401Z,16.17
2023-01-30T18:10:04.210Z,14.32
2023-01-30T18:12:30.780Z,16.38
2023-01-30T18:14:58.684Z,14.75
2023-01-30T18:17:28.478Z,20.88
2023-01-30T18:19:56.371Z,12.20
2023-01-30T18:22:22.817Z,22.10
2023-01-30T18:24:49.391Z,15.23
2023-01-30T18:27:15.905Z,11.88
2023-01-30T18:29:42.397Z,11.57
2023-01-30T18:32:08.901Z,18.98
2023-01-30T18:34:38.569Z,16.50
2023-01-30T18:37:06.549Z,14.88
2023-01-30T18:39:33.169Z,16.20
2023-01-30T18:42:00.188Z,12.48
2023-01-30T18:44:27.152Z,15.73
2023-01-30T18:46:53.662Z,14.70
2023-01-30T18:49:20.188Z,14.98
2023-01-30T18:51:46.628Z,16.35
2023-01-30T18:54:14.420Z,29.05
2023-01-30T18:56:40.965Z,14.38
2023-01-30T18:59:07.971Z,18.30
2023-01-30T19:01:35.781Z,14.85
2023-01-30T19:04:03.171Z,24.58
2023-01-30T19:06:29.983Z,16.88
2023-01-30T19:08:56.823Z,16.60
2023-01-30T19:11:43.448Z,21.83
2023-01-30T19:14:10.115Z,21.05
2023-01-30T19:16:37.538Z,20.65
2023-01-30T19:19:04.264Z,20.40
2023-01-30T19:21:31.241Z,14.80
2023-01-30T19:23:57.717Z,13.35
2023-01-30T19:26:28.275Z,21.17
2023-01-30T19:28:54.781Z,15.68
2023-01-30T19:31:22.010Z,17.48
2023-01-30T19:33:53.362Z,10.50
2023-01-30T19:36:20.491Z,15.30
2023-01-30T19:38:47.843Z,18.55
2023-01-30T19:41:15.094Z,15.73
2023-01-30T19:43:42.981Z,16.17
2023-01-30T19:46:10.913Z,16.90
2023-01-30T19:48:38.275Z,20.73
2023-01-30T19:51:09.660Z,16.45
2023-01-30T19:53:36.182Z,14.80
2023-01-30T19:56:04.964Z,18.58
2023-01-30T19:58:31.567Z,15.60
2023-01-30T20:01:05.624Z,18.40
2023-01-30T20:03:32.303Z,21.42
2023-01-30T20:06:06.093Z,17.50
2023-01-30T20:08:33.007Z,27.75
2023-01-30T20:11:02.479Z,25.45
2023-01-30T20:13:28.953Z,18.10
2023-01-30T20:15:56.599Z,84.15
2023-01-30T20:18:24.528Z,20.55
2023-01-30T20:20:50.904Z,18.00
2023-01-30T20:23:18.179Z,17.08
2023-01-30T20:25:46.586Z,19.67
2023-01-30T20:28:13.124Z,21.83
2023-01-30T20:30:40.209Z,17.92
2023-01-30T20:33:06.901Z,17.00
2023-01-30T20:35:35.657Z,19.80
2023-01-30T20:38:02.140Z,18.10
2023-01-30T20:40:28.528Z,14.70
2023-01-30T20:42:55.049Z,20.38
2023-01-30T20:45:21.503Z,16.65
2023-01-30T20:47:47.958Z,23.02
2023-01-30T20:50:14.516Z,20.45
2023-01-30T20:52:43.443Z,20.55
2023-01-30T20:55:09.922Z,18.15
2023-01-30T20:57:37.264Z,20.27
2023-01-30T21:00:05.564Z,26.63
2023-01-30T21:02:32.212Z,18.52
2023-01-30T21:04:58.745Z,15.57
2023-01-30T21:07:25.260Z,17.90
2023-01-30T21:09:53.129Z,17.77
2023-01-30T21:12:20.006Z,22.70
2023-01-30T21:14:46.550Z,20.58
2023-01-30T21:17:12.934Z,19.30
2023-01-30T21:19:43.424Z,12.35
2023-01-30T21:22:10.997Z,21.27
2023-01-30T21:24:39.266Z,17.23
2023-01-30T21:27:07.252Z,14.10
2023-01-30T21:29:33.717Z,20.70
2023-01-30T21:32:00.327Z,21.77
2023-01-30T21:34:26.937Z,20.08
2023-01-30T21:37:13.670Z,20.38
2023-01-30T21:39:58.946Z,17.20
2023-01-30T21:42:45.160Z,16.27
2023-01-30T21:45:11.709Z,14.55
2023-01-30T21:47:38.830Z,11.02
2023-01-30T21:50:05.786Z,13.10
2023-01-30T21:52:33.095Z,16.67
2023-01-30T21:54:59.682Z,20.58
2023-01-30T21:57:28.044Z,17.95
2023-01-30T21:59:54.598Z,19.98
2023-01-30T22:02:21.150Z,16.40
2023-01-30T22:04:47.646Z,17.13
2023-01-30T22:07:14.221Z,17.67
2023-01-30T22:09:40.658Z,20.60
2023-01-30T22:12:07.221Z,25.05
2023-01-30T22:14:36.456Z,17.85
2023-01-30T22:17:02.951Z,19.08
2023-01-30T22:19:35.180Z,17.83
2023-01-30T22:22:02.343Z,18.25
2023-01-30T22:24:28.845Z,18.35
2023-01-30T22:26:55.452Z,15.27
2023-01-30T22:29:21.885Z,19.35
2023-01-30T22:31:49.815Z,16.83
2023-01-30T22:34:16.352Z,16.52
2023-01-30T22:36:42.791Z,22.15
2023-01-30T22:39:09.459Z,18.10
2023-01-30T22:41:36.515Z,13.85
2023-01-30T22:44:04.256Z,18.15
2023-01-30T22:46:31.945Z,13.70
2023-01-30T22:49:00.536Z,20.45
2023-01-30T22:51:27.784Z,18.23
2023-01-30T22:53:55.055Z,19.80
2023-01-30T22:56:22.737Z,17.30
2023-01-30T22:58:49.281Z,20.85
2023-01-30T23:01:17.116Z,14.07
2023-01-30T23:03:44.322Z,19.63
2023-01-30T23:06:13.185Z,19.25
2023-01-30T23:08:40.717Z,27.17
2023-01-30T23:11:09.082Z,16.52
2023-01-30T23:13:35.723Z,17.10
2023-01-30T23:16:02.627Z,22.15
2023-01-30T23:18:47.713Z,19.48
2023-01-30T23:21:15.838Z,15.60
2023-01-30T23:23:42.612Z,14.57
2023-01-30T23:26:09.334Z,17.70
2023-01-30T23:28:36.590Z,21.33
2023-01-30T23:31:07.313Z,14.65
2023-01-30T23:33:33.906Z,15.82
2023-01-30T23:36:01.136Z,10.18
2023-01-30T23:38:28.952Z,18.42
2023-01-30T23:41:03.775Z,19.95
2023-01-30T23:43:30.920Z,17.27
2023-01-30T23:45:59.119Z,19.88
2023-01-30T23:48:25.551Z,14.02
2023-01-30T23:50:52.033Z,18.58
2023-01-30T23:53:18.479Z,15.30
2023-01-30T23:55:52.067Z,17.90
2023-01-30T23:58:18.562Z,16.73
